sensor_id;sensor_type;location;lat;lon;timestamp;pressure;altitude;pressure_sealevel;temperature;humidity
29467;BME280;60968;37.490;-122.288;2023-01-23T00:01:04;99189.72;;;11.80;32.36
29467;BME280;60968;37.490;-122.288;2023-01-23T00:04:06;99178.34;;;11.86;33.00
29467;BME280;60968;37.490;-122.288;2023-01-23T00:07:06;99192.13;;;11.95;32.86
29467;BME280;60968;37.490;-122.288;2023-01-23T00:10:09;99187.91;;;11.87;31.42
29467;BME280;60968;37.490;-122.288;2023-01-23T00:13:10;99184.84;;;11.60;30.33
29467;BME280;60968;37.490;-122.288;2023-01-23T00:16:13;99200.81;;;11.40;29.66
29467;BME280;60968;37.490;-122.288;2023-01-23T00:19:14;99206.13;;;11.33;30.38
29467;BME280;60968;37.490;-122.288;2023-01-23T00:22:15;99198.38;;;11.27;31.21
29467;BME280;60968;37.490;-122.288;2023-01-23T00:25:17;99191.56;;;11.17;30.85
29467;BME280;60968;37.490;-122.288;2023-01-23T00:28:18;99198.59;;;11.10;32.03
29467;BME280;60968;37.490;-122.288;2023-01-23T00:31:28;99199.72;;;10.91;31.44
29467;BME280;60968;37.490;-122.288;2023-01-23T00:34:29;99196.28;;;10.86;31.63
29467;BME280;60968;37.490;-122.288;2023-01-23T00:37:30;99201.63;;;10.78;31.62
29467;BME280;60968;37.490;-122.288;2023-01-23T00:40:31;99206.03;;;10.71;32.22
29467;BME280;60968;37.490;-122.288;2023-01-23T00:43:35;99212.22;;;10.61;33.35
29467;BME280;60968;37.490;-122.288;2023-01-23T00:46:36;99214.06;;;10.53;35.30
29467;BME280;60968;37.490;-122.288;2023-01-23T00:49:37;99209.84;;;10.41;34.45
29467;BME280;60968;37.490;-122.288;2023-01-23T00:52:38;99210.78;;;10.35;35.63
29467;BME280;60968;37.490;-122.288;2023-01-23T00:55:39;99211.66;;;10.34;36.65
29467;BME280;60968;37.490;-122.288;2023-01-23T00:58:40;99206.47;;;10.26;37.26
29467;BME280;60968;37.490;-122.288;2023-01-23T01:01:42;99204.69;;;10.32;38.57
29467;BME280;60968;37.490;-122.288;2023-01-23T01:04:43;99197.75;;;10.29;37.43
29467;BME280;60968;37.490;-122.288;2023-01-23T01:07:45;99187.41;;;10.24;38.81
29467;BME280;60968;37.490;-122.288;2023-01-23T01:10:46;99191.84;;;10.15;37.95
29467;BME280;60968;37.490;-122.288;2023-01-23T01:13:48;99189.25;;;10.13;38.89
29467;BME280;60968;37.490;-122.288;2023-01-23T01:16:49;99193.66;;;10.05;38.19
29467;BME280;60968;37.490;-122.288;2023-01-23T01:19:49;99200.63;;;10.04;38.82
29467;BME280;60968;37.490;-122.288;2023-01-23T01:22:51;99187.59;;;10.01;40.08
29467;BME280;60968;37.490;-122.288;2023-01-23T01:25:58;99194.66;;;9.90;39.17
29467;BME280;60968;37.490;-122.288;2023-01-23T01:28:59;99194.75;;;9.79;38.51
29467;BME280;60968;37.490;-122.288;2023-01-23T01:32:00;99204.28;;;9.78;39.40
29467;BME280;60968;37.490;-122.288;2023-01-23T01:35:01;99203.47;;;9.75;40.06
29467;BME280;60968;37.490;-122.288;2023-01-23T01:38:02;99206.88;;;9.78;40.95
29467;BME280;60968;37.490;-122.288;2023-01-23T01:41:03;99198.25;;;9.70;40.01
29467;BME280;60968;37.490;-122.288;2023-01-23T01:44:04;99197.44;;;9.68;39.99
29467;BME280;60968;37.490;-122.288;2023-01-23T01:47:05;99198.28;;;9.67;39.66
29467;BME280;60968;37.490;-122.288;2023-01-23T01:50:07;99185.28;;;9.67;39.19
29467;BME280;60968;37.490;-122.288;2023-01-23T01:53:09;99198.25;;;9.70;38.38
29467;BME280;60968;37.490;-122.288;2023-01-23T01:56:11;99202.59;;;9.71;37.55
29467;BME280;60968;37.490;-122.288;2023-01-23T01:59:14;99204.38;;;9.69;38.50
29467;BME280;60968;37.490;-122.288;2023-01-23T02:05:48;99193.03;;;9.76;37.78
29467;BME280;60968;37.490;-122.288;2023-01-23T02:09:11;99199.91;;;9.85;37.21
29467;BME280;60968;37.490;-122.288;2023-01-23T02:12:14;99183.44;;;9.82;35.70
29467;BME280;60968;37.490;-122.288;2023-01-23T02:15:16;99198.28;;;9.72;37.13
29467;BME280;60968;37.490;-122.288;2023-01-23T02:18:20;99188.78;;;9.63;36.10
29467;BME280;60968;37.490;-122.288;2023-01-23T02:21:22;99185.34;;;9.61;36.13
29467;BME280;60968;37.490;-122.288;2023-01-23T02:24:38;99195.84;;;9.49;35.32
29467;BME280;60968;37.490;-122.288;2023-01-23T02:27:40;99189.78;;;9.48;35.75
29467;BME280;60968;37.490;-122.288;2023-01-23T02:30:43;99188.09;;;9.41;35.83
29467;BME280;60968;37.490;-122.288;2023-01-23T02:33:46;99175.97;;;9.37;35.45
29467;BME280;60968;37.490;-122.288;2023-01-23T02:36:47;99175.97;;;9.40;34.85
29467;BME280;60968;37.490;-122.288;2023-01-23T02:39:48;99194.97;;;9.45;35.57
29467;BME280;60968;37.490;-122.288;2023-01-23T02:42:49;99199.28;;;9.54;36.91
29467;BME280;60968;37.490;-122.288;2023-01-23T02:45:52;99195.69;;;9.67;35.28
29467;BME280;60968;37.490;-122.288;2023-01-23T02:54:58;99186.31;;;9.44;34.99
29467;BME280;60968;37.490;-122.288;2023-01-23T02:57:59;99194.13;;;9.44;34.71
29467;BME280;60968;37.490;-122.288;2023-01-23T03:01:01;99175.13;;;9.35;35.49
29467;BME280;60968;37.490;-122.288;2023-01-23T03:04:03;99189.91;;;9.30;35.66
29467;BME280;60968;37.490;-122.288;2023-01-23T03:07:04;99188.19;;;9.27;36.20
29467;BME280;60968;37.490;-122.288;2023-01-23T03:10:05;99180.34;;;9.30;35.52
29467;BME280;60968;37.490;-122.288;2023-01-23T03:13:07;99179.53;;;9.23;35.37
29467;BME280;60968;37.490;-122.288;2023-01-23T03:16:10;99183.88;;;9.17;35.43
29467;BME280;60968;37.490;-122.288;2023-01-23T03:19:11;99173.50;;;9.20;34.64
29467;BME280;60968;37.490;-122.288;2023-01-23T03:22:12;99166.56;;;9.19;34.89
29467;BME280;60968;37.490;-122.288;2023-01-23T03:25:13;99159.63;;;9.18;34.82
29467;BME280;60968;37.490;-122.288;2023-01-23T03:28:13;99171.81;;;9.09;35.68
29467;BME280;60968;37.490;-122.288;2023-01-23T03:31:15;99171.84;;;9.03;36.08
29467;BME280;60968;37.490;-122.288;2023-01-23T03:34:17;99170.97;;;9.04;36.21
29467;BME280;60968;37.490;-122.288;2023-01-23T03:37:18;99175.34;;;8.99;37.02
29467;BME280;60968;37.490;-122.288;2023-01-23T03:40:21;99176.22;;;8.93;37.84
29467;BME280;60968;37.490;-122.288;2023-01-23T03:43:22;99185.75;;;8.91;37.88
29467;BME280;60968;37.490;-122.288;2023-01-23T03:46:23;99179.75;;;8.85;38.97
29467;BME280;60968;37.490;-122.288;2023-01-23T03:49:24;99185.84;;;8.78;40.02
29467;BME280;60968;37.490;-122.288;2023-01-23T03:52:25;99175.44;;;8.74;39.99
29467;BME280;60968;37.490;-122.288;2023-01-23T03:55:28;99162.44;;;8.79;39.80
29467;BME280;60968;37.490;-122.288;2023-01-23T03:58:29;99161.56;;;8.79;40.25
29467;BME280;60968;37.490;-122.288;2023-01-23T04:01:30;99176.31;;;8.73;41.44
29467;BME280;60968;37.490;-122.288;2023-01-23T04:04:31;99157.31;;;8.65;40.32
29467;BME280;60968;37.490;-122.288;2023-01-23T04:07:32;99157.31;;;8.62;39.86
29467;BME280;60968;37.490;-122.288;2023-01-23T04:10:33;99173.75;;;8.61;39.32
29467;BME280;60968;37.490;-122.288;2023-01-23T04:13:35;99164.22;;;8.60;39.01
29467;BME280;60968;37.490;-122.288;2023-01-23T04:16:36;99162.50;;;8.61;38.80
29467;BME280;60968;37.490;-122.288;2023-01-23T04:19:37;99148.63;;;8.62;38.94
29467;BME280;60968;37.490;-122.288;2023-01-23T04:22:38;99138.28;;;8.58;38.84
29467;BME280;60968;37.490;-122.288;2023-01-23T04:25:38;99144.31;;;8.64;38.01
29467;BME280;60968;37.490;-122.288;2023-01-23T04:28:40;99155.56;;;8.64;37.73
29467;BME280;60968;37.490;-122.288;2023-01-23T04:31:40;99165.09;;;8.59;38.92
29467;BME280;60968;37.490;-122.288;2023-01-23T04:34:41;99158.19;;;8.55;39.70
29467;BME280;60968;37.490;-122.288;2023-01-23T04:37:42;99172.94;;;8.50;41.07
29467;BME280;60968;37.490;-122.288;2023-01-23T04:40:43;99159.97;;;8.47;41.02
29467;BME280;60968;37.490;-122.288;2023-01-23T04:43:45;99167.72;;;8.45;42.94
29467;BME280;60968;37.490;-122.288;2023-01-23T04:46:47;99166.00;;;8.36;43.13
29467;BME280;60968;37.490;-122.288;2023-01-23T04:49:48;99185.94;;;8.34;43.72
29467;BME280;60968;37.490;-122.288;2023-01-23T04:52:49;99183.31;;;8.30;44.17
29467;BME280;60968;37.490;-122.288;2023-01-23T04:55:50;99188.53;;;8.28;44.32
29467;BME280;60968;37.490;-122.288;2023-01-23T04:58:50;99172.94;;;8.27;44.50
29467;BME280;60968;37.490;-122.288;2023-01-23T05:01:51;99165.16;;;8.25;45.47
29467;BME280;60968;37.490;-122.288;2023-01-23T05:04:52;99170.38;;;8.20;44.69
29467;BME280;60968;37.490;-122.288;2023-01-23T05:07:53;99177.28;;;8.24;44.66
29467;BME280;60968;37.490;-122.288;2023-01-23T05:10:54;99185.94;;;8.27;44.78
29467;BME280;60968;37.490;-122.288;2023-01-23T05:13:55;99180.75;;;8.25;45.13
29467;BME280;60968;37.490;-122.288;2023-01-23T05:16:56;99167.75;;;8.25;43.94
29467;BME280;60968;37.490;-122.288;2023-01-23T05:19:58;99166.03;;;8.29;44.31
29467;BME280;60968;37.490;-122.288;2023-01-23T05:22:59;99176.44;;;8.26;43.89
29467;BME280;60968;37.490;-122.288;2023-01-23T05:26:00;99159.13;;;8.24;44.44
29467;BME280;60968;37.490;-122.288;2023-01-23T05:29:02;99154.78;;;8.25;44.14
29467;BME280;60968;37.490;-122.288;2023-01-23T05:32:03;99172.94;;;8.30;44.09
29467;BME280;60968;37.490;-122.288;2023-01-23T05:35:04;99144.38;;;8.30;43.59
29467;BME280;60968;37.490;-122.288;2023-01-23T05:38:05;99152.19;;;8.34;42.63
29467;BME280;60968;37.490;-122.288;2023-01-23T05:44:57;99141.78;;;8.34;43.78
29467;BME280;60968;37.490;-122.288;2023-01-23T05:47:58;99122.75;;;8.37;42.99
29467;BME280;60968;37.490;-122.288;2023-01-23T05:51:01;99123.59;;;8.39;43.12
29467;BME280;60968;37.490;-122.288;2023-01-23T05:54:02;99123.56;;;8.42;43.70
29467;BME280;60968;37.490;-122.288;2023-01-23T05:57:03;99112.34;;;8.40;45.04
29467;BME280;60968;37.490;-122.288;2023-01-23T06:00:05;99123.56;;;8.44;44.45
29467;BME280;60968;37.490;-122.288;2023-01-23T06:03:06;99111.47;;;8.47;43.11
29467;BME280;60968;37.490;-122.288;2023-01-23T06:06:07;99101.09;;;8.49;42.68
29467;BME280;60968;37.490;-122.288;2023-01-23T06:09:08;99098.50;;;8.47;41.95
29467;BME280;60968;37.490;-122.288;2023-01-23T06:12:10;99084.66;;;8.50;40.28
29467;BME280;60968;37.490;-122.288;2023-01-23T06:15:11;99110.63;;;8.48;40.65
29467;BME280;60968;37.490;-122.288;2023-01-23T06:18:12;99101.09;;;8.46;40.46
29467;BME280;60968;37.490;-122.288;2023-01-23T06:21:13;99108.03;;;8.47;40.42
29467;BME280;60968;37.490;-122.288;2023-01-23T06:24:14;99103.69;;;8.38;41.38
29467;BME280;60968;37.490;-122.288;2023-01-23T06:27:15;99101.97;;;8.37;41.17
29467;BME280;60968;37.490;-122.288;2023-01-23T06:30:16;99100.22;;;8.37;41.53
29467;BME280;60968;37.490;-122.288;2023-01-23T06:33:17;99099.38;;;8.45;41.51
29467;BME280;60968;37.490;-122.288;2023-01-23T06:36:18;99088.09;;;8.43;42.53
29467;BME280;60968;37.490;-122.288;2023-01-23T06:39:19;99099.38;;;8.45;41.55
29467;BME280;60968;37.490;-122.288;2023-01-23T06:42:20;99105.41;;;8.45;41.15
29467;BME280;60968;37.490;-122.288;2023-01-23T06:48:57;99120.13;;;8.35;41.19
29467;BME280;60968;37.490;-122.288;2023-01-23T06:51:57;99127.06;;;8.36;41.32
29467;BME280;60968;37.490;-122.288;2023-01-23T06:54:58;99130.50;;;8.35;41.27
29467;BME280;60968;37.490;-122.288;2023-01-23T06:57:59;99133.13;;;8.34;41.29
29467;BME280;60968;37.490;-122.288;2023-01-23T07:01:08;99137.47;;;8.33;42.22
29467;BME280;60968;37.490;-122.288;2023-01-23T07:04:09;99143.53;;;8.31;42.66
29467;BME280;60968;37.490;-122.288;2023-01-23T07:07:10;99153.06;;;8.27;43.06
29467;BME280;60968;37.490;-122.288;2023-01-23T07:10:11;99152.19;;;8.28;42.78
29467;BME280;60968;37.490;-122.288;2023-01-23T07:13:12;99166.00;;;8.35;42.20
29467;BME280;60968;37.490;-122.288;2023-01-23T07:16:13;99166.88;;;8.32;42.66
29467;BME280;60968;37.490;-122.288;2023-01-23T07:19:15;99159.06;;;8.35;42.69
29467;BME280;60968;37.490;-122.288;2023-01-23T07:22:18;99170.34;;;8.34;43.76
29467;BME280;60968;37.490;-122.288;2023-01-23T07:25:19;99168.63;;;8.27;44.72
29467;BME280;60968;37.490;-122.288;2023-01-23T07:28:20;99157.41;;;8.20;44.80
29467;BME280;60968;37.490;-122.288;2023-01-23T07:31:20;99153.06;;;8.18;43.36
29467;BME280;60968;37.490;-122.288;2023-01-23T07:34:21;99163.47;;;8.18;42.47
29467;BME280;60968;37.490;-122.288;2023-01-23T07:37:22;99160.00;;;8.17;41.37
29467;BME280;60968;37.490;-122.288;2023-01-23T07:40:23;99146.16;;;8.23;40.81
29467;BME280;60968;37.490;-122.288;2023-01-23T07:43:25;99147.88;;;8.21;40.79
29467;BME280;60968;37.490;-122.288;2023-01-23T07:46:26;99139.22;;;8.20;41.16
29467;BME280;60968;37.490;-122.288;2023-01-23T07:49:30;99149.63;;;8.16;41.39
29467;BME280;60968;37.490;-122.288;2023-01-23T07:52:31;99151.34;;;8.14;41.67
29467;BME280;60968;37.490;-122.288;2023-01-23T07:55:32;99134.91;;;8.07;42.13
29467;BME280;60968;37.490;-122.288;2023-01-23T07:58:33;99121.97;;;8.01;42.11
29467;BME280;60968;37.490;-122.288;2023-01-23T08:01:33;99117.63;;;8.11;41.07
29467;BME280;60968;37.490;-122.288;2023-01-23T08:04:34;99095.13;;;8.10;41.38
29467;BME280;60968;37.490;-122.288;2023-01-23T08:07:35;99101.19;;;8.13;41.34
29467;BME280;60968;37.490;-122.288;2023-01-23T08:10:36;99105.50;;;8.13;41.04
29467;BME280;60968;37.490;-122.288;2023-01-23T08:13:37;99115.88;;;8.11;40.98
29467;BME280;60968;37.490;-122.288;2023-01-23T08:16:38;99102.06;;;8.11;40.71
29467;BME280;60968;37.490;-122.288;2023-01-23T08:19:39;99089.91;;;8.13;39.50
29467;BME280;60968;37.490;-122.288;2023-01-23T08:22:40;99096.00;;;8.12;39.88
29467;BME280;60968;37.490;-122.288;2023-01-23T08:25:41;99090.81;;;8.02;40.32
29467;BME280;60968;37.490;-122.288;2023-01-23T08:28:42;99100.34;;;8.02;39.87
29467;BME280;60968;37.490;-122.288;2023-01-23T08:31:44;99098.63;;;8.01;39.73
29467;BME280;60968;37.490;-122.288;2023-01-23T08:34:45;99107.28;;;7.94;40.31
29467;BME280;60968;37.490;-122.288;2023-01-23T08:37:46;99116.78;;;7.88;39.74
29467;BME280;60968;37.490;-122.288;2023-01-23T08:40:49;99122.84;;;7.84;40.49
29467;BME280;60968;37.490;-122.288;2023-01-23T08:43:50;99130.66;;;7.80;40.56
29467;BME280;60968;37.490;-122.288;2023-01-23T08:46:51;99143.63;;;7.73;40.94
29467;BME280;60968;37.490;-122.288;2023-01-23T08:49:52;99147.94;;;7.68;41.55
29467;BME280;60968;37.490;-122.288;2023-01-23T08:52:53;99156.59;;;7.64;41.42
29467;BME280;60968;37.490;-122.288;2023-01-23T08:55:58;99148.81;;;7.61;41.67
29467;BME280;60968;37.490;-122.288;2023-01-23T08:58:59;99154.00;;;7.52;42.06
29467;BME280;60968;37.490;-122.288;2023-01-23T09:02:00;99162.63;;;7.40;42.05
29467;BME280;60968;37.490;-122.288;2023-01-23T09:05:01;99172.13;;;7.33;42.42
29467;BME280;60968;37.490;-122.288;2023-01-23T09:08:02;99176.44;;;7.30;42.60
29467;BME280;60968;37.490;-122.288;2023-01-23T09:11:06;99175.56;;;7.23;43.21
29467;BME280;60968;37.490;-122.288;2023-01-23T09:14:08;99173.84;;;7.16;44.98
29467;BME280;60968;37.490;-122.288;2023-01-23T09:17:08;99174.66;;;7.02;44.12
29467;BME280;60968;37.490;-122.288;2023-01-23T09:20:10;99161.69;;;6.96;44.83
29467;BME280;60968;37.490;-122.288;2023-01-23T09:23:11;99166.81;;;6.84;45.68
29467;BME280;60968;37.490;-122.288;2023-01-23T09:26:13;99153.03;;;6.85;44.12
29467;BME280;60968;37.490;-122.288;2023-01-23T09:29:14;99149.59;;;6.95;43.77
29467;BME280;60968;37.490;-122.288;2023-01-23T09:32:16;99141.81;;;7.01;43.05
29467;BME280;60968;37.490;-122.288;2023-01-23T09:35:17;99132.34;;;7.07;42.83
29467;BME280;60968;37.490;-122.288;2023-01-23T09:38:18;99122.88;;;7.12;43.10
29467;BME280;60968;37.490;-122.288;2023-01-23T09:41:24;99125.47;;;7.10;43.91
29467;BME280;60968;37.490;-122.288;2023-01-23T09:44:52;99099.53;;;7.12;44.21
29467;BME280;60968;37.490;-122.288;2023-01-23T09:48:14;99096.09;;;7.16;45.46
29467;BME280;60968;37.490;-122.288;2023-01-23T09:51:57;99100.38;;;7.18;45.58
29467;BME280;60968;37.490;-122.288;2023-01-23T09:55:23;99101.25;;;7.13;47.04
29467;BME280;60968;37.490;-122.288;2023-01-23T10:01:55;99095.22;;;7.11;46.67
29467;BME280;60968;37.490;-122.288;2023-01-23T10:04:58;99093.47;;;7.11;46.65
29467;BME280;60968;37.490;-122.288;2023-01-23T10:11:21;99099.53;;;7.19;46.13
29467;BME280;60968;37.490;-122.288;2023-01-23T10:14:51;99102.97;;;7.17;47.20
29467;BME280;60968;37.490;-122.288;2023-01-23T10:24:49;99124.56;;;7.13;48.74
29467;BME280;60968;37.490;-122.288;2023-01-23T10:28:13;99120.28;;;7.15;48.44
29467;BME280;60968;37.490;-122.288;2023-01-23T10:31:37;99131.50;;;7.23;48.69
29467;BME280;60968;37.490;-122.288;2023-01-23T10:34:54;99129.78;;;7.25;48.10
29467;BME280;60968;37.490;-122.288;2023-01-23T10:41:13;99127.19;;;7.22;46.82
29467;BME280;60968;37.490;-122.288;2023-01-23T10:44:16;99129.78;;;7.20;47.09
29467;BME280;60968;37.490;-122.288;2023-01-23T10:47:28;99126.31;;;7.18;46.71
29467;BME280;60968;37.490;-122.288;2023-01-23T10:50:36;99133.22;;;7.15;46.53
29467;BME280;60968;37.490;-122.288;2023-01-23T10:53:37;99136.66;;;7.14;46.23
29467;BME280;60968;37.490;-122.288;2023-01-23T10:56:59;99139.25;;;7.12;44.94
29467;BME280;60968;37.490;-122.288;2023-01-23T11:03:33;99149.63;;;7.08;44.65
29467;BME280;60968;37.490;-122.288;2023-01-23T11:06:34;99143.56;;;7.07;44.81
29467;BME280;60968;37.490;-122.288;2023-01-23T11:09:47;99146.16;;;7.06;44.36
29467;BME280;60968;37.490;-122.288;2023-01-23T11:12:50;99146.16;;;7.09;43.36
29467;BME280;60968;37.490;-122.288;2023-01-23T11:15:51;99145.31;;;7.07;43.10
29467;BME280;60968;37.490;-122.288;2023-01-23T11:19:18;99156.50;;;7.04;43.76
29467;BME280;60968;37.490;-122.288;2023-01-23T11:22:29;99156.50;;;7.02;42.63
29467;BME280;60968;37.490;-122.288;2023-01-23T11:28:47;99157.38;;;6.97;43.10
29467;BME280;60968;37.490;-122.288;2023-01-23T11:32:11;99164.25;;;6.87;45.34
29467;BME280;60968;37.490;-122.288;2023-01-23T11:35:19;99166.78;;;6.68;45.61
29467;BME280;60968;37.490;-122.288;2023-01-23T11:38:27;99171.91;;;6.62;47.09
29467;BME280;60968;37.490;-122.288;2023-01-23T11:41:33;99170.22;;;6.69;45.96
29467;BME280;60968;37.490;-122.288;2023-01-23T11:44:37;99164.22;;;6.79;45.93
29467;BME280;60968;37.490;-122.288;2023-01-23T11:58:08;99180.63;;;6.80;46.97
29467;BME280;60968;37.490;-122.288;2023-01-23T12:08:01;99171.06;;;6.65;46.86
29467;BME280;60968;37.490;-122.288;2023-01-23T12:11:14;99170.19;;;6.61;47.64
29467;BME280;60968;37.490;-122.288;2023-01-23T12:14:30;99176.22;;;6.62;48.19
29467;BME280;60968;37.490;-122.288;2023-01-23T12:21:17;99159.84;;;6.58;47.86
29467;BME280;60968;37.490;-122.288;2023-01-23T12:27:41;99168.47;;;6.63;45.99
29467;BME280;60968;37.490;-122.288;2023-01-23T12:37:47;99173.53;;;6.40;47.53
29467;BME280;60968;37.490;-122.288;2023-01-23T12:44:03;99170.91;;;6.34;49.19
29467;BME280;60968;37.490;-122.288;2023-01-23T12:47:13;99170.06;;;6.37;47.71
29467;BME280;60968;37.490;-122.288;2023-01-23T12:50:31;99171.88;;;6.48;47.31
29467;BME280;60968;37.490;-122.288;2023-01-23T12:53:37;99182.25;;;6.62;47.25
29467;BME280;60968;37.490;-122.288;2023-01-23T12:56:39;99174.53;;;6.67;46.48
29467;BME280;60968;37.490;-122.288;2023-01-23T13:00:00;99188.34;;;6.69;47.40
29467;BME280;60968;37.490;-122.288;2023-01-23T13:13:20;99179.72;;;6.68;48.38
29467;BME280;60968;37.490;-122.288;2023-01-23T13:16:27;99174.53;;;6.73;47.45
29467;BME280;60968;37.490;-122.288;2023-01-23T13:19:30;99175.41;;;6.70;46.64
29467;BME280;60968;37.490;-122.288;2023-01-23T13:22:32;99171.09;;;6.69;46.98
29467;BME280;60968;37.490;-122.288;2023-01-23T13:25:33;99165.88;;;6.60;47.48
29467;BME280;60968;37.490;-122.288;2023-01-23T13:28:45;99158.06;;;6.52;48.88
29467;BME280;60968;37.490;-122.288;2023-01-23T13:31:46;99157.19;;;6.47;48.68
29467;BME280;60968;37.490;-122.288;2023-01-23T13:34:47;99165.78;;;6.40;48.64
29467;BME280;60968;37.490;-122.288;2023-01-23T13:37:48;99154.53;;;6.35;49.97
29467;BME280;60968;37.490;-122.288;2023-01-23T13:44:26;99153.63;;;6.25;50.70
29467;BME280;60968;37.490;-122.288;2023-01-23T13:47:31;99163.94;;;6.19;51.70
29467;BME280;60968;37.490;-122.288;2023-01-23T13:50:40;99164.72;;;6.09;52.75
29467;BME280;60968;37.490;-122.288;2023-01-23T13:53:46;99166.31;;;5.94;54.22
29467;BME280;60968;37.490;-122.288;2023-01-23T13:56:47;99171.50;;;5.94;53.45
29467;BME280;60968;37.490;-122.288;2023-01-23T13:59:52;99183.63;;;5.98;53.66
29467;BME280;60968;37.490;-122.288;2023-01-23T14:06:34;99190.50;;;5.96;53.84
29467;BME280;60968;37.490;-122.288;2023-01-23T14:09:35;99191.25;;;5.84;55.03
29467;BME280;60968;37.490;-122.288;2023-01-23T14:12:45;99191.19;;;5.75;55.11
29467;BME280;60968;37.490;-122.288;2023-01-23T14:15:51;99201.34;;;5.58;55.80
29467;BME280;60968;37.490;-122.288;2023-01-23T14:18:54;99213.41;;;5.53;55.53
29467;BME280;60968;37.490;-122.288;2023-01-23T14:21:58;99210.69;;;5.41;56.11
29467;BME280;60968;37.490;-122.288;2023-01-23T14:25:00;99212.31;;;5.32;56.65
29467;BME280;60968;37.490;-122.288;2023-01-23T14:28:04;99220.03;;;5.28;56.10
29467;BME280;60968;37.490;-122.288;2023-01-23T14:31:13;99223.41;;;5.22;56.40
29467;BME280;60968;37.490;-122.288;2023-01-23T14:34:22;99231.09;;;5.16;56.39
29467;BME280;60968;37.490;-122.288;2023-01-23T14:37:24;99226.66;;;5.06;56.33
29467;BME280;60968;37.490;-122.288;2023-01-23T14:40:25;99221.41;;;4.96;56.96
29467;BME280;60968;37.490;-122.288;2023-01-23T14:43:28;99226.53;;;4.93;56.80
29467;BME280;60968;37.490;-122.288;2023-01-23T14:46:39;99237.66;;;4.89;56.66
29467;BME280;60968;37.490;-122.288;2023-01-23T14:49:39;99241.97;;;4.90;57.61
29467;BME280;60968;37.490;-122.288;2023-01-23T14:52:40;99238.56;;;4.90;57.10
29467;BME280;60968;37.490;-122.288;2023-01-23T14:59:03;99236.22;;;5.13;54.10
29467;BME280;60968;37.490;-122.288;2023-01-23T15:02:33;99239.94;;;5.38;53.40
29467;BME280;60968;37.490;-122.288;2023-01-23T15:05:34;99241.69;;;5.41;53.41
29467;BME280;60968;37.490;-122.288;2023-01-23T15:08:35;99246.75;;;5.30;52.56
29467;BME280;60968;37.490;-122.288;2023-01-23T15:11:36;99244.13;;;5.25;54.49
29467;BME280;60968;37.490;-122.288;2023-01-23T15:14:38;99252.66;;;5.20;54.26
29467;BME280;60968;37.490;-122.288;2023-01-23T15:17:43;99243.25;;;5.25;53.61
29467;BME280;60968;37.490;-122.288;2023-01-23T15:20:57;99245.88;;;5.28;52.05
29467;BME280;60968;37.490;-122.288;2023-01-23T15:27:34;99251.09;;;5.34;52.17
29467;BME280;60968;37.490;-122.288;2023-01-23T15:33:35;99254.81;;;5.61;51.31
29467;BME280;60968;37.490;-122.288;2023-01-23T15:36:37;99254.00;;;5.68;52.79
29467;BME280;60968;37.490;-122.288;2023-01-23T15:39:54;99253.25;;;5.75;50.59
29467;BME280;60968;37.490;-122.288;2023-01-23T15:46:09;99268.91;;;5.94;49.39
29467;BME280;60968;37.490;-122.288;2023-01-23T15:49:11;99273.38;;;6.07;50.24
29467;BME280;60968;37.490;-122.288;2023-01-23T15:55:19;99274.38;;;6.25;48.21
29467;BME280;60968;37.490;-122.288;2023-01-23T15:58:21;99277.94;;;6.39;47.62
29467;BME280;60968;37.490;-122.288;2023-01-23T16:01:22;99283.19;;;6.50;46.09
29467;BME280;60968;37.490;-122.288;2023-01-23T16:04:23;99298.84;;;6.70;45.64
29467;BME280;60968;37.490;-122.288;2023-01-23T16:07:31;99286.88;;;6.91;45.17
29467;BME280;60968;37.490;-122.288;2023-01-23T16:10:37;99299.88;;;7.03;44.94
29467;BME280;60968;37.490;-122.288;2023-01-23T16:13:38;99297.34;;;7.18;44.58
29467;BME280;60968;37.490;-122.288;2023-01-23T16:16:39;99292.22;;;7.32;43.45
29467;BME280;60968;37.490;-122.288;2023-01-23T16:19:39;99297.44;;;7.43;43.98
29467;BME280;60968;37.490;-122.288;2023-01-23T16:22:41;99286.22;;;7.52;44.05
29467;BME280;60968;37.490;-122.288;2023-01-23T16:25:42;99291.44;;;7.66;43.00
29467;BME280;60968;37.490;-122.288;2023-01-23T16:28:43;99294.94;;;7.79;44.44
29467;BME280;60968;37.490;-122.288;2023-01-23T16:31:44;99295.81;;;8.22;43.04
29467;BME280;60968;37.490;-122.288;2023-01-23T16:34:44;99293.50;;;11.65;36.71
29467;BME280;60968;37.490;-122.288;2023-01-23T16:37:48;99285.34;;;14.84;32.31
29467;BME280;60968;37.490;-122.288;2023-01-23T16:40:50;99277.97;;;15.88;30.59
29467;BME280;60968;37.490;-122.288;2023-01-23T16:43:52;99297.63;;;17.09;29.57
29467;BME280;60968;37.490;-122.288;2023-01-23T16:46:53;99294.72;;;17.84;28.43
29467;BME280;60968;37.490;-122.288;2023-01-23T16:49:54;99296.09;;;17.73;26.67
29467;BME280;60968;37.490;-122.288;2023-01-23T16:53:00;99317.34;;;17.68;27.20
29467;BME280;60968;37.490;-122.288;2023-01-23T16:56:03;99309.25;;;18.61;27.02
29467;BME280;60968;37.490;-122.288;2023-01-23T16:59:06;99314.00;;;18.94;26.51
29467;BME280;60968;37.490;-122.288;2023-01-23T17:02:24;99318.38;;;19.16;25.52
29467;BME280;60968;37.490;-122.288;2023-01-23T17:05:26;99327.97;;;18.76;25.60
29467;BME280;60968;37.490;-122.288;2023-01-23T17:08:29;99325.53;;;19.52;25.33
29467;BME280;60968;37.490;-122.288;2023-01-23T17:11:36;99316.53;;;19.75;23.23
29467;BME280;60968;37.490;-122.288;2023-01-23T17:14:40;99319.41;;;19.12;25.09
29467;BME280;60968;37.490;-122.288;2023-01-23T17:17:42;99320.06;;;18.76;25.21
29467;BME280;60968;37.490;-122.288;2023-01-23T17:20:43;99322.94;;;18.28;26.35
29467;BME280;60968;37.490;-122.288;2023-01-23T17:23:44;99314.84;;;19.55;24.68
29467;BME280;60968;37.490;-122.288;2023-01-23T17:26:45;99325.84;;;20.03;24.07
29467;BME280;60968;37.490;-122.288;2023-01-23T17:29:46;99332.28;;;18.78;24.85
29467;BME280;60968;37.490;-122.288;2023-01-23T17:32:53;99331.34;;;16.44;28.87